PWSweather.com
Personal Weather Stations
Station Observations
KOHCLEVE171
Cleveland, OH

Cleveland, OH

Lat: 41.48646164, Lon: -81.46408081

Elevation: 1059

Station Type:

High Low Average
Temperature 14.2°F-9.9°C 6.4°F-14.2°C 10.3°F-12.1°C
Dew Point 10.9°F-11.7°C 3.2°F-16.0°C 6.4°F-14.2°C
Winds 5.6 mph 9.0 kmh 0.7 mph 1.1 kmh 2.0 mph E3.2 kmh E
Wind Gusts 16.3 mph26.2 kmh 1.1 mph1.8 kmh 5.0 mph8.0 kmh
Humidity 89% 73% 84%
Pressure 30.68 in1038.9 mb 30.29 in1025.7 mb -
Precipitation 0.00 in0.0 mm - -
Hour Temp Dew Point Humidity Winds Wind Gusts Pressure Precip Precip Rate Daily Precip Total
12:04 AM 8.4°F-13.1°C 4.8°F-15.1°C 85% 3.4 mph NNE5.5 kmh NNE 9.4 mph15.1 kmh 30.29 in1025.7 mb 0.00 in0.0 mm 0.00 in0.0 mm 0.00 in0.0 mm
12:09 AM 8.4°F-13.1°C 4.6°F-15.2°C 84% 3.8 mph N6.1 kmh N 6.5 mph10.5 kmh 30.29 in1025.7 mb 0.00 in0.0 mm 0.00 in0.0 mm 0.00 in0.0 mm
12:14 AM 8.2°F-13.2°C 4.6°F-15.2°C 85% 3.8 mph NE6.1 kmh NE 6.7 mph10.8 kmh 30.29 in1025.7 mb 0.00 in0.0 mm 0.00 in0.0 mm 0.00 in0.0 mm
12:19 AM 8.2°F-13.2°C 4.6°F-15.2°C 85% 3.1 mph NE5.0 kmh NE 5.8 mph9.3 kmh 30.29 in1025.7 mb 0.00 in0.0 mm 0.00 in0.0 mm 0.00 in0.0 mm
12:24 AM 8.2°F-13.2°C 4.6°F-15.2°C 85% 2.9 mph NNE4.7 kmh NNE 4.9 mph7.9 kmh 30.29 in1025.7 mb 0.00 in0.0 mm 0.00 in0.0 mm 0.00 in0.0 mm
12:29 AM 8.2°F-13.2°C 4.5°F-15.3°C 84% 2.9 mph NE4.7 kmh NE 5.6 mph9.0 kmh 30.29 in1025.7 mb 0.00 in0.0 mm 0.00 in0.0 mm 0.00 in0.0 mm
12:34 AM 8.2°F-13.2°C 4.6°F-15.2°C 85% 2.9 mph NNE4.7 kmh NNE 5.1 mph8.2 kmh 30.29 in1025.7 mb 0.00 in0.0 mm 0.00 in0.0 mm 0.00 in0.0 mm
12:39 AM 8.2°F-13.2°C 4.6°F-15.2°C 85% 4.5 mph N7.2 kmh N 11.6 mph18.7 kmh 30.29 in1025.7 mb 0.00 in0.0 mm 0.00 in0.0 mm 0.00 in0.0 mm
12:44 AM 8.2°F-13.2°C 4.5°F-15.3°C 84% 3.1 mph NE5.0 kmh NE 5.1 mph8.2 kmh 30.29 in1025.7 mb 0.00 in0.0 mm 0.00 in0.0 mm 0.00 in0.0 mm
12:49 AM 8.4°F-13.1°C 4.8°F-15.1°C 85% 2.9 mph NE4.7 kmh NE 5.6 mph9.0 kmh 30.29 in1025.7 mb 0.00 in0.0 mm 0.00 in0.0 mm 0.00 in0.0 mm
12:54 AM 8.2°F-13.2°C 4.6°F-15.2°C 85% 2.7 mph NE4.3 kmh NE 4.3 mph6.9 kmh 30.29 in1025.7 mb 0.00 in0.0 mm 0.00 in0.0 mm 0.00 in0.0 mm
01:04 AM 8.2°F-13.2°C 4.6°F-15.2°C 85% 3.4 mph 5.5 kmh 6.0 mph9.7 kmh 30.30 in1026.1 mb 0.00 in0.0 mm 0.00 in0.0 mm 0.00 in0.0 mm
01:09 AM 8.2°F-13.2°C 4.6°F-15.2°C 85% 3.6 mph NE5.8 kmh NE 6.3 mph10.1 kmh 30.29 in1025.7 mb 0.00 in0.0 mm 0.00 in0.0 mm 0.00 in0.0 mm
01:14 AM 8.2°F-13.2°C 4.6°F-15.2°C 85% 4.7 mph NNE7.6 kmh NNE 12.5 mph20.1 kmh 30.30 in1026.1 mb 0.00 in0.0 mm 0.00 in0.0 mm 0.00 in0.0 mm
01:19 AM 8.1°F-13.3°C 4.8°F-15.1°C 86% 2.2 mph NNE3.5 kmh NNE 3.8 mph6.1 kmh 30.30 in1026.1 mb 0.00 in0.0 mm 0.00 in0.0 mm 0.00 in0.0 mm
01:24 AM 8.1°F-13.3°C 4.8°F-15.1°C 86% 2.9 mph NNE4.7 kmh NNE 5.6 mph9.0 kmh 30.30 in1026.1 mb 0.00 in0.0 mm 0.00 in0.0 mm 0.00 in0.0 mm
01:29 AM 7.9°F-13.4°C 4.6°F-15.2°C 86% 3.1 mph NE5.0 kmh NE 6.5 mph10.5 kmh 30.30 in1026.1 mb 0.00 in0.0 mm 0.00 in0.0 mm 0.00 in0.0 mm
01:34 AM 7.9°F-13.4°C 4.6°F-15.2°C 86% 3.6 mph NE5.8 kmh NE 6.7 mph10.8 kmh 30.30 in1026.1 mb 0.00 in0.0 mm 0.00 in0.0 mm 0.00 in0.0 mm
01:39 AM 7.7°F-13.5°C 4.5°F-15.3°C 86% 3.6 mph NE5.8 kmh NE 9.2 mph14.8 kmh 30.31 in1026.4 mb 0.00 in0.0 mm 0.00 in0.0 mm 0.00 in0.0 mm
01:44 AM 7.5°F-13.6°C 4.3°F-15.4°C 86% 2.5 mph N4.0 kmh N 4.0 mph6.4 kmh 30.30 in1026.1 mb 0.00 in0.0 mm 0.00 in0.0 mm 0.00 in0.0 mm
01:49 AM 7.7°F-13.5°C 4.5°F-15.3°C 86% 2.5 mph N4.0 kmh N 6.7 mph10.8 kmh 30.30 in1026.1 mb 0.00 in0.0 mm 0.00 in0.0 mm 0.00 in0.0 mm
01:54 AM 7.5°F-13.6°C 4.3°F-15.4°C 86% 2.5 mph NE4.0 kmh NE 5.8 mph9.3 kmh 30.31 in1026.4 mb 0.00 in0.0 mm 0.00 in0.0 mm 0.00 in0.0 mm
01:59 AM 7.5°F-13.6°C 4.3°F-15.4°C 86% 2.9 mph NE4.7 kmh NE 6.3 mph10.1 kmh 30.31 in1026.4 mb 0.00 in0.0 mm 0.00 in0.0 mm 0.00 in0.0 mm
02:04 AM 7.5°F-13.6°C 4.3°F-15.4°C 86% 2.9 mph NE4.7 kmh NE 6.9 mph11.1 kmh 30.31 in1026.4 mb 0.00 in0.0 mm 0.00 in0.0 mm 0.00 in0.0 mm
02:09 AM 7.5°F-13.6°C 4.3°F-15.4°C 86% 4.5 mph NE7.2 kmh NE 9.4 mph15.1 kmh 30.31 in1026.4 mb 0.00 in0.0 mm 0.00 in0.0 mm 0.00 in0.0 mm
02:14 AM 7.5°F-13.6°C 4.3°F-15.4°C 86% 3.1 mph NE5.0 kmh NE 7.4 mph11.9 kmh 30.31 in1026.4 mb 0.00 in0.0 mm 0.00 in0.0 mm 0.00 in0.0 mm
02:19 AM 7.3°F-13.7°C 4.1°F-15.5°C 86% 4.0 mph NE6.4 kmh NE 8.7 mph14.0 kmh 30.31 in1026.4 mb 0.00 in0.0 mm 0.00 in0.0 mm 0.00 in0.0 mm
02:24 AM 7.5°F-13.6°C 4.3°F-15.4°C 86% 3.4 mph NE5.5 kmh NE 7.6 mph12.2 kmh 30.31 in1026.4 mb 0.00 in0.0 mm 0.00 in0.0 mm 0.00 in0.0 mm
02:29 AM 7.5°F-13.6°C 4.3°F-15.4°C 86% 2.9 mph NNE4.7 kmh NNE 6.5 mph10.5 kmh 30.32 in1026.8 mb 0.00 in0.0 mm 0.00 in0.0 mm 0.00 in0.0 mm
02:34 AM 7.3°F-13.7°C 4.1°F-15.5°C 86% 3.4 mph NNE5.5 kmh NNE 10.3 mph16.6 kmh 30.32 in1026.8 mb 0.00 in0.0 mm 0.00 in0.0 mm 0.00 in0.0 mm
02:39 AM 7.3°F-13.7°C 4.1°F-15.5°C 86% 4.0 mph NE6.4 kmh NE 11.2 mph18.0 kmh 30.32 in1026.8 mb 0.00 in0.0 mm 0.00 in0.0 mm 0.00 in0.0 mm
02:44 AM 7.3°F-13.7°C 4.1°F-15.5°C 86% 4.9 mph NNE7.9 kmh NNE 10.5 mph16.9 kmh 30.32 in1026.8 mb 0.00 in0.0 mm 0.00 in0.0 mm 0.00 in0.0 mm
02:49 AM 7.3°F-13.7°C 4.1°F-15.5°C 86% 2.2 mph N3.5 kmh N 4.0 mph6.4 kmh 30.32 in1026.8 mb 0.00 in0.0 mm 0.00 in0.0 mm 0.00 in0.0 mm
02:54 AM 7.3°F-13.7°C 4.1°F-15.5°C 86% 4.0 mph NE6.4 kmh NE 8.5 mph13.7 kmh 30.32 in1026.8 mb 0.00 in0.0 mm 0.00 in0.0 mm 0.00 in0.0 mm
02:59 AM 7.3°F-13.7°C 4.1°F-15.5°C 86% 2.5 mph NE4.0 kmh NE 4.9 mph7.9 kmh 30.32 in1026.8 mb 0.00 in0.0 mm 0.00 in0.0 mm 0.00 in0.0 mm
03:04 AM 7.3°F-13.7°C 4.1°F-15.5°C 86% 2.9 mph NNE4.7 kmh NNE 6.7 mph10.8 kmh 30.32 in1026.8 mb 0.00 in0.0 mm 0.00 in0.0 mm 0.00 in0.0 mm
03:09 AM 7.3°F-13.7°C 4.1°F-15.5°C 86% 2.5 mph NNE4.0 kmh NNE 4.5 mph7.2 kmh 30.33 in1027.1 mb 0.00 in0.0 mm 0.00 in0.0 mm 0.00 in0.0 mm
03:14 AM 7.3°F-13.7°C 4.1°F-15.5°C 86% 2.5 mph NNE4.0 kmh NNE 6.9 mph11.1 kmh 30.33 in1027.1 mb 0.00 in0.0 mm 0.00 in0.0 mm 0.00 in0.0 mm
03:19 AM 7.2°F-13.8°C 3.9°F-15.6°C 86% 2.7 mph NNE4.3 kmh NNE 6.7 mph10.8 kmh 30.33 in1027.1 mb 0.00 in0.0 mm 0.00 in0.0 mm 0.00 in0.0 mm
03:24 AM 7.2°F-13.8°C 3.9°F-15.6°C 86% 4.0 mph NE6.4 kmh NE 6.7 mph10.8 kmh 30.33 in1027.1 mb 0.00 in0.0 mm 0.00 in0.0 mm 0.00 in0.0 mm
03:29 AM 7.2°F-13.8°C 3.9°F-15.6°C 86% 4.3 mph NE6.9 kmh NE 7.4 mph11.9 kmh 30.34 in1027.4 mb 0.00 in0.0 mm 0.00 in0.0 mm 0.00 in0.0 mm
03:34 AM 7.2°F-13.8°C 3.9°F-15.6°C 86% 2.9 mph NNE4.7 kmh NNE 4.7 mph7.6 kmh 30.34 in1027.4 mb 0.00 in0.0 mm 0.00 in0.0 mm 0.00 in0.0 mm
03:39 AM 7.2°F-13.8°C 3.9°F-15.6°C 86% 3.1 mph NNE5.0 kmh NNE 7.8 mph12.6 kmh 30.34 in1027.4 mb 0.00 in0.0 mm 0.00 in0.0 mm 0.00 in0.0 mm
03:44 AM 7.2°F-13.8°C 3.9°F-15.6°C 86% 2.5 mph N4.0 kmh N 4.7 mph7.6 kmh 30.34 in1027.4 mb 0.00 in0.0 mm 0.00 in0.0 mm 0.00 in0.0 mm
03:49 AM 7.2°F-13.8°C 3.9°F-15.6°C 86% 3.1 mph NNE5.0 kmh NNE 6.9 mph11.1 kmh 30.35 in1027.8 mb 0.00 in0.0 mm 0.00 in0.0 mm 0.00 in0.0 mm
03:54 AM 7.2°F-13.8°C 3.9°F-15.6°C 86% 4.0 mph NNE6.4 kmh NNE 9.4 mph15.1 kmh 30.35 in1027.8 mb 0.00 in0.0 mm 0.00 in0.0 mm 0.00 in0.0 mm
03:59 AM 7.0°F-13.9°C 3.7°F-15.7°C 86% 3.1 mph NE5.0 kmh NE 6.3 mph10.1 kmh 30.35 in1027.8 mb 0.00 in0.0 mm 0.00 in0.0 mm 0.00 in0.0 mm
04:04 AM 7.0°F-13.9°C 3.7°F-15.7°C 86% 3.4 mph NE5.5 kmh NE 6.0 mph9.7 kmh 30.35 in1027.8 mb 0.00 in0.0 mm 0.00 in0.0 mm 0.00 in0.0 mm
04:09 AM 7.0°F-13.9°C 3.7°F-15.7°C 86% 3.1 mph NNE5.0 kmh NNE 7.8 mph12.6 kmh 30.36 in1028.1 mb 0.00 in0.0 mm 0.00 in0.0 mm 0.00 in0.0 mm
04:14 AM 7.0°F-13.9°C 3.7°F-15.7°C 86% 3.4 mph NE5.5 kmh NE 7.2 mph11.6 kmh 30.36 in1028.1 mb 0.00 in0.0 mm 0.00 in0.0 mm 0.00 in0.0 mm
04:19 AM 7.0°F-13.9°C 3.7°F-15.7°C 86% 3.6 mph NE5.8 kmh NE 6.0 mph9.7 kmh 30.36 in1028.1 mb 0.00 in0.0 mm 0.00 in0.0 mm 0.00 in0.0 mm
04:24 AM 7.0°F-13.9°C 3.7°F-15.7°C 86% 2.7 mph NNE4.3 kmh NNE 7.4 mph11.9 kmh 30.36 in1028.1 mb 0.00 in0.0 mm 0.00 in0.0 mm 0.00 in0.0 mm
04:29 AM 7.0°F-13.9°C 3.7°F-15.7°C 86% 3.6 mph NE5.8 kmh NE 9.6 mph15.4 kmh 30.36 in1028.1 mb 0.00 in0.0 mm 0.00 in0.0 mm 0.00 in0.0 mm
04:34 AM 7.0°F-13.9°C 3.7°F-15.7°C 86% 3.1 mph NNE5.0 kmh NNE 7.4 mph11.9 kmh 30.36 in1028.1 mb 0.00 in0.0 mm 0.00 in0.0 mm 0.00 in0.0 mm
04:39 AM 7.0°F-13.9°C 3.7°F-15.7°C 86% 2.9 mph NE4.7 kmh NE 6.7 mph10.8 kmh 30.36 in1028.1 mb 0.00 in0.0 mm 0.00 in0.0 mm 0.00 in0.0 mm
04:44 AM 7.0°F-13.9°C 3.7°F-15.7°C 86% 4.0 mph NE6.4 kmh NE 6.7 mph10.8 kmh 30.36 in1028.1 mb 0.00 in0.0 mm 0.00 in0.0 mm 0.00 in0.0 mm
04:49 AM 7.0°F-13.9°C 3.7°F-15.7°C 86% 4.9 mph NE7.9 kmh NE 12.1 mph19.5 kmh 30.36 in1028.1 mb 0.00 in0.0 mm 0.00 in0.0 mm 0.00 in0.0 mm
04:54 AM 7.0°F-13.9°C 3.7°F-15.7°C 86% 2.2 mph N3.5 kmh N 5.8 mph9.3 kmh 30.37 in1028.4 mb 0.00 in0.0 mm 0.00 in0.0 mm 0.00 in0.0 mm
04:59 AM 7.0°F-13.9°C 3.7°F-15.7°C 86% 2.0 mph N3.2 kmh N 3.8 mph6.1 kmh 30.37 in1028.4 mb 0.00 in0.0 mm 0.00 in0.0 mm 0.00 in0.0 mm
05:04 AM 6.8°F-14.0°C 3.6°F-15.8°C 86% 4.3 mph NE6.9 kmh NE 9.4 mph15.1 kmh 30.37 in1028.4 mb 0.00 in0.0 mm 0.00 in0.0 mm 0.00 in0.0 mm
05:09 AM 6.8°F-14.0°C 3.6°F-15.8°C 86% 3.6 mph NNE5.8 kmh NNE 14.5 mph23.3 kmh 30.37 in1028.4 mb 0.00 in0.0 mm 0.00 in0.0 mm 0.00 in0.0 mm
05:14 AM 6.6°F-14.1°C 3.4°F-15.9°C 86% 3.1 mph NNE5.0 kmh NNE 9.2 mph14.8 kmh 30.37 in1028.4 mb 0.00 in0.0 mm 0.00 in0.0 mm 0.00 in0.0 mm
05:19 AM 6.6°F-14.1°C 3.4°F-15.9°C 86% 3.8 mph NE6.1 kmh NE 8.9 mph14.3 kmh 30.38 in1028.8 mb 0.00 in0.0 mm 0.00 in0.0 mm 0.00 in0.0 mm
05:24 AM 6.6°F-14.1°C 3.4°F-15.9°C 86% 2.5 mph NNE4.0 kmh NNE 5.6 mph9.0 kmh 30.38 in1028.8 mb 0.00 in0.0 mm 0.00 in0.0 mm 0.00 in0.0 mm
05:29 AM 6.6°F-14.1°C 3.4°F-15.9°C 86% 3.4 mph NNE5.5 kmh NNE 7.2 mph11.6 kmh 30.38 in1028.8 mb 0.00 in0.0 mm 0.00 in0.0 mm 0.00 in0.0 mm
05:34 AM 6.6°F-14.1°C 3.4°F-15.9°C 86% 2.2 mph NNE3.5 kmh NNE 4.9 mph7.9 kmh 30.38 in1028.8 mb 0.00 in0.0 mm 0.00 in0.0 mm 0.00 in0.0 mm
05:39 AM 6.6°F-14.1°C 3.4°F-15.9°C 86% 4.0 mph NE6.4 kmh NE 10.5 mph16.9 kmh 30.38 in1028.8 mb 0.00 in0.0 mm 0.00 in0.0 mm 0.00 in0.0 mm
05:44 AM 6.6°F-14.1°C 3.4°F-15.9°C 86% 1.6 mph N2.6 kmh N 3.8 mph6.1 kmh 30.38 in1028.8 mb 0.00 in0.0 mm 0.00 in0.0 mm 0.00 in0.0 mm
05:49 AM 6.6°F-14.1°C 3.4°F-15.9°C 86% 3.1 mph NE5.0 kmh NE 7.2 mph11.6 kmh 30.39 in1029.1 mb 0.00 in0.0 mm 0.00 in0.0 mm 0.00 in0.0 mm
05:54 AM 6.4°F-14.2°C 3.2°F-16.0°C 86% 3.4 mph NE5.5 kmh NE 5.6 mph9.0 kmh 30.39 in1029.1 mb 0.00 in0.0 mm 0.00 in0.0 mm 0.00 in0.0 mm
05:59 AM 6.6°F-14.1°C 3.4°F-15.9°C 86% 2.9 mph NE4.7 kmh NE 6.7 mph10.8 kmh 30.39 in1029.1 mb 0.00 in0.0 mm 0.00 in0.0 mm 0.00 in0.0 mm
06:04 AM 6.8°F-14.0°C 3.6°F-15.8°C 86% 2.7 mph NNE4.3 kmh NNE 8.7 mph14.0 kmh 30.39 in1029.1 mb 0.00 in0.0 mm 0.00 in0.0 mm 0.00 in0.0 mm
06:09 AM 6.6°F-14.1°C 3.4°F-15.9°C 86% 1.8 mph N2.9 kmh N 4.7 mph7.6 kmh 30.39 in1029.1 mb 0.00 in0.0 mm 0.00 in0.0 mm 0.00 in0.0 mm
06:14 AM 6.6°F-14.1°C 3.4°F-15.9°C 86% 2.5 mph N4.0 kmh N 5.4 mph8.7 kmh 30.39 in1029.1 mb 0.00 in0.0 mm 0.00 in0.0 mm 0.00 in0.0 mm
06:19 AM 6.8°F-14.0°C 3.6°F-15.8°C 86% 5.6 mph NE9.0 kmh NE 9.8 mph15.8 kmh 30.40 in1029.5 mb 0.00 in0.0 mm 0.00 in0.0 mm 0.00 in0.0 mm
06:24 AM 6.8°F-14.0°C 3.6°F-15.8°C 86% 2.0 mph NNE3.2 kmh NNE 4.9 mph7.9 kmh 30.40 in1029.5 mb 0.00 in0.0 mm 0.00 in0.0 mm 0.00 in0.0 mm
06:29 AM 6.8°F-14.0°C 3.6°F-15.8°C 86% 2.7 mph NE4.3 kmh NE 5.8 mph9.3 kmh 30.40 in1029.5 mb 0.00 in0.0 mm 0.00 in0.0 mm 0.00 in0.0 mm
06:34 AM 6.8°F-14.0°C 3.6°F-15.8°C 86% 3.1 mph N5.0 kmh N 9.8 mph15.8 kmh 30.40 in1029.5 mb 0.00 in0.0 mm 0.00 in0.0 mm 0.00 in0.0 mm
06:39 AM 6.6°F-14.1°C 3.4°F-15.9°C 86% 2.0 mph N3.2 kmh N 4.3 mph6.9 kmh 30.41 in1029.8 mb 0.00 in0.0 mm 0.00 in0.0 mm 0.00 in0.0 mm
06:44 AM 6.6°F-14.1°C 3.4°F-15.9°C 86% 4.9 mph ENE7.9 kmh ENE 6.7 mph10.8 kmh 30.41 in1029.8 mb 0.00 in0.0 mm 0.00 in0.0 mm 0.00 in0.0 mm
06:49 AM 6.6°F-14.1°C 3.4°F-15.9°C 86% 2.9 mph NE4.7 kmh NE 6.0 mph9.7 kmh 30.42 in1030.1 mb 0.00 in0.0 mm 0.00 in0.0 mm 0.00 in0.0 mm
06:54 AM 6.6°F-14.1°C 3.4°F-15.9°C 86% 4.0 mph NE6.4 kmh NE 6.9 mph11.1 kmh 30.42 in1030.1 mb 0.00 in0.0 mm 0.00 in0.0 mm 0.00 in0.0 mm
06:59 AM 6.6°F-14.1°C 3.4°F-15.9°C 86% 2.2 mph NNE3.5 kmh NNE 5.4 mph8.7 kmh 30.42 in1030.1 mb 0.00 in0.0 mm 0.00 in0.0 mm 0.00 in0.0 mm
07:04 AM 6.6°F-14.1°C 3.4°F-15.9°C 86% 4.3 mph NE6.9 kmh NE 16.3 mph26.2 kmh 30.42 in1030.1 mb 0.00 in0.0 mm 0.00 in0.0 mm 0.00 in0.0 mm
07:09 AM 6.6°F-14.1°C 3.4°F-15.9°C 86% 2.7 mph N4.3 kmh N 5.8 mph9.3 kmh 30.42 in1030.1 mb 0.00 in0.0 mm 0.00 in0.0 mm 0.00 in0.0 mm
07:14 AM 6.6°F-14.1°C 3.4°F-15.9°C 86% 3.6 mph NE5.8 kmh NE 6.7 mph10.8 kmh 30.42 in1030.1 mb 0.00 in0.0 mm 0.00 in0.0 mm 0.00 in0.0 mm
07:19 AM 6.6°F-14.1°C 3.4°F-15.9°C 86% 3.1 mph NE5.0 kmh NE 10.7 mph17.2 kmh 30.42 in1030.1 mb 0.00 in0.0 mm 0.00 in0.0 mm 0.00 in0.0 mm
07:24 AM 6.6°F-14.1°C 3.4°F-15.9°C 86% 2.7 mph NNE4.3 kmh NNE 7.4 mph11.9 kmh 30.43 in1030.5 mb 0.00 in0.0 mm 0.00 in0.0 mm 0.00 in0.0 mm
07:29 AM 6.6°F-14.1°C 3.4°F-15.9°C 86% 2.7 mph NE4.3 kmh NE 6.7 mph10.8 kmh 30.43 in1030.5 mb 0.00 in0.0 mm 0.00 in0.0 mm 0.00 in0.0 mm
07:34 AM 6.4°F-14.2°C 3.2°F-16.0°C 86% 4.5 mph NE7.2 kmh NE 6.5 mph10.5 kmh 30.43 in1030.5 mb 0.00 in0.0 mm 0.00 in0.0 mm 0.00 in0.0 mm
07:39 AM 6.4°F-14.2°C 3.2°F-16.0°C 86% 4.3 mph NE6.9 kmh NE 7.4 mph11.9 kmh 30.43 in1030.5 mb 0.00 in0.0 mm 0.00 in0.0 mm 0.00 in0.0 mm
07:44 AM 6.8°F-14.0°C 3.6°F-15.8°C 86% 2.7 mph N4.3 kmh N 7.2 mph11.6 kmh 30.44 in1030.8 mb 0.00 in0.0 mm 0.00 in0.0 mm 0.00 in0.0 mm
07:49 AM 6.8°F-14.0°C 3.6°F-15.8°C 86% 4.5 mph NE7.2 kmh NE 9.4 mph15.1 kmh 30.44 in1030.8 mb 0.00 in0.0 mm 0.00 in0.0 mm 0.00 in0.0 mm
07:54 AM 7.0°F-13.9°C 3.7°F-15.7°C 86% 3.4 mph NE5.5 kmh NE 6.9 mph11.1 kmh 30.44 in1030.8 mb 0.00 in0.0 mm 0.00 in0.0 mm 0.00 in0.0 mm
07:59 AM 7.2°F-13.8°C 3.9°F-15.6°C 86% 3.8 mph ENE6.1 kmh ENE 5.4 mph8.7 kmh 30.44 in1030.8 mb 0.00 in0.0 mm 0.00 in0.0 mm 0.00 in0.0 mm
08:04 AM 7.2°F-13.8°C 3.9°F-15.6°C 86% 2.9 mph NE4.7 kmh NE 5.6 mph9.0 kmh 30.45 in1031.2 mb 0.00 in0.0 mm 0.00 in0.0 mm 0.00 in0.0 mm
08:09 AM 7.2°F-13.8°C 3.9°F-15.6°C 86% 3.6 mph NE5.8 kmh NE 8.3 mph13.4 kmh 30.45 in1031.2 mb 0.00 in0.0 mm 0.00 in0.0 mm 0.00 in0.0 mm
08:14 AM 7.3°F-13.7°C 4.1°F-15.5°C 86% 2.5 mph NE4.0 kmh NE 5.1 mph8.2 kmh 30.45 in1031.2 mb 0.00 in0.0 mm 0.00 in0.0 mm 0.00 in0.0 mm
08:19 AM 7.2°F-13.8°C 3.9°F-15.6°C 86% 3.8 mph NE6.1 kmh NE 5.6 mph9.0 kmh 30.45 in1031.2 mb 0.00 in0.0 mm 0.00 in0.0 mm 0.00 in0.0 mm
08:24 AM 7.3°F-13.7°C 4.1°F-15.5°C 86% 4.0 mph NE6.4 kmh NE 6.9 mph11.1 kmh 30.46 in1031.5 mb 0.00 in0.0 mm 0.00 in0.0 mm 0.00 in0.0 mm
08:29 AM 7.3°F-13.7°C 4.1°F-15.5°C 86% 2.9 mph NNE4.7 kmh NNE 9.2 mph14.8 kmh 30.46 in1031.5 mb 0.00 in0.0 mm 0.00 in0.0 mm 0.00 in0.0 mm
08:34 AM 7.3°F-13.7°C 4.1°F-15.5°C 86% 3.1 mph NE5.0 kmh NE 7.2 mph11.6 kmh 30.47 in1031.8 mb 0.00 in0.0 mm 0.00 in0.0 mm 0.00 in0.0 mm
08:39 AM 7.3°F-13.7°C 4.1°F-15.5°C 86% 2.5 mph NNE4.0 kmh NNE 4.5 mph7.2 kmh 30.47 in1031.8 mb 0.00 in0.0 mm 0.00 in0.0 mm 0.00 in0.0 mm
08:44 AM 7.3°F-13.7°C 4.1°F-15.5°C 86% 4.0 mph NE6.4 kmh NE 6.3 mph10.1 kmh 30.47 in1031.8 mb 0.00 in0.0 mm 0.00 in0.0 mm 0.00 in0.0 mm
08:49 AM 7.3°F-13.7°C 4.1°F-15.5°C 86% 2.5 mph NNE4.0 kmh NNE 6.0 mph9.7 kmh 30.47 in1031.8 mb 0.00 in0.0 mm 0.00 in0.0 mm 0.00 in0.0 mm
08:54 AM 7.2°F-13.8°C 3.9°F-15.6°C 86% 3.4 mph NE5.5 kmh NE 6.7 mph10.8 kmh 30.48 in1032.2 mb 0.00 in0.0 mm 0.00 in0.0 mm 0.00 in0.0 mm
08:59 AM 7.3°F-13.7°C 4.1°F-15.5°C 86% 2.0 mph NNE3.2 kmh NNE 4.9 mph7.9 kmh 30.48 in1032.2 mb 0.00 in0.0 mm 0.00 in0.0 mm 0.00 in0.0 mm
09:04 AM 7.3°F-13.7°C 4.1°F-15.5°C 86% 2.2 mph NNE3.5 kmh NNE 4.7 mph7.6 kmh 30.48 in1032.2 mb 0.00 in0.0 mm 0.00 in0.0 mm 0.00 in0.0 mm
09:09 AM 7.7°F-13.5°C 4.5°F-15.3°C 86% 2.5 mph NE4.0 kmh NE 5.4 mph8.7 kmh 30.49 in1032.5 mb 0.00 in0.0 mm 0.00 in0.0 mm 0.00 in0.0 mm
09:14 AM 7.5°F-13.6°C 4.3°F-15.4°C 86% 2.9 mph NE4.7 kmh NE 4.3 mph6.9 kmh 30.49 in1032.5 mb 0.00 in0.0 mm 0.00 in0.0 mm 0.00 in0.0 mm
09:19 AM 7.7°F-13.5°C 4.5°F-15.3°C 86% 2.7 mph NNE4.3 kmh NNE 5.4 mph8.7 kmh 30.49 in1032.5 mb 0.00 in0.0 mm 0.00 in0.0 mm 0.00 in0.0 mm
09:24 AM 7.7°F-13.5°C 4.5°F-15.3°C 86% 2.5 mph N4.0 kmh N 4.7 mph7.6 kmh 30.50 in1032.8 mb 0.00 in0.0 mm 0.00 in0.0 mm 0.00 in0.0 mm
09:29 AM 7.9°F-13.4°C 5.0°F-15.0°C 88% 1.6 mph N2.6 kmh N 3.6 mph5.8 kmh 30.50 in1032.8 mb 0.00 in0.0 mm 0.00 in0.0 mm 0.00 in0.0 mm
09:34 AM 8.1°F-13.3°C 5.2°F-14.9°C 88% 3.6 mph NE5.8 kmh NE 8.7 mph14.0 kmh 30.51 in1033.2 mb 0.00 in0.0 mm 0.00 in0.0 mm 0.00 in0.0 mm
09:39 AM 8.2°F-13.2°C 5.4°F-14.8°C 88% 3.8 mph NE6.1 kmh NE 5.6 mph9.0 kmh 30.51 in1033.2 mb 0.00 in0.0 mm 0.00 in0.0 mm 0.00 in0.0 mm
09:44 AM 8.4°F-13.1°C 5.5°F-14.7°C 88% 4.3 mph NNE6.9 kmh NNE 9.2 mph14.8 kmh 30.51 in1033.2 mb 0.00 in0.0 mm 0.00 in0.0 mm 0.00 in0.0 mm
09:49 AM 8.2°F-13.2°C 5.4°F-14.8°C 88% 2.2 mph 3.5 kmh 4.7 mph7.6 kmh 30.52 in1033.5 mb 0.00 in0.0 mm 0.00 in0.0 mm 0.00 in0.0 mm
09:54 AM 8.2°F-13.2°C 5.4°F-14.8°C 88% 2.0 mph NNE3.2 kmh NNE 3.4 mph5.5 kmh 30.52 in1033.5 mb 0.00 in0.0 mm 0.00 in0.0 mm 0.00 in0.0 mm
09:59 AM 8.1°F-13.3°C 5.2°F-14.9°C 88% 2.0 mph N3.2 kmh N 3.6 mph5.8 kmh 30.53 in1033.9 mb 0.00 in0.0 mm 0.00 in0.0 mm 0.00 in0.0 mm
10:04 AM 8.2°F-13.2°C 5.4°F-14.8°C 88% 2.7 mph NE4.3 kmh NE 5.8 mph9.3 kmh 30.53 in1033.9 mb 0.00 in0.0 mm 0.00 in0.0 mm 0.00 in0.0 mm
10:09 AM 8.4°F-13.1°C 5.5°F-14.7°C 88% 3.4 mph NE5.5 kmh NE 8.5 mph13.7 kmh 30.53 in1033.9 mb 0.00 in0.0 mm 0.00 in0.0 mm 0.00 in0.0 mm
10:14 AM 8.6°F-13.0°C 5.7°F-14.6°C 88% 2.9 mph N4.7 kmh N 5.6 mph9.0 kmh 30.53 in1033.9 mb 0.00 in0.0 mm 0.00 in0.0 mm 0.00 in0.0 mm
10:19 AM 8.4°F-13.1°C 5.5°F-14.7°C 88% 2.5 mph NNW4.0 kmh NNW 4.7 mph7.6 kmh 30.53 in1033.9 mb 0.00 in0.0 mm 0.00 in0.0 mm 0.00 in0.0 mm
10:24 AM 8.6°F-13.0°C 5.7°F-14.6°C 88% 2.7 mph N4.3 kmh N 4.0 mph6.4 kmh 30.54 in1034.2 mb 0.00 in0.0 mm 0.00 in0.0 mm 0.00 in0.0 mm
10:29 AM 8.8°F-12.9°C 5.9°F-14.5°C 88% 3.4 mph NE5.5 kmh NE 8.1 mph13.0 kmh 30.54 in1034.2 mb 0.00 in0.0 mm 0.00 in0.0 mm 0.00 in0.0 mm
10:34 AM 8.8°F-12.9°C 5.9°F-14.5°C 88% 2.2 mph N3.5 kmh N 4.0 mph6.4 kmh 30.55 in1034.5 mb 0.00 in0.0 mm 0.00 in0.0 mm 0.00 in0.0 mm
10:39 AM 9.0°F-12.8°C 6.1°F-14.4°C 88% 2.5 mph NE4.0 kmh NE 6.7 mph10.8 kmh 30.55 in1034.5 mb 0.00 in0.0 mm 0.00 in0.0 mm 0.00 in0.0 mm
10:44 AM 9.1°F-12.7°C 6.3°F-14.3°C 88% 2.7 mph N4.3 kmh N 4.5 mph7.2 kmh 30.55 in1034.5 mb 0.00 in0.0 mm 0.00 in0.0 mm 0.00 in0.0 mm
10:49 AM 9.1°F-12.7°C 6.3°F-14.3°C 88% 1.6 mph N2.6 kmh N 2.9 mph4.7 kmh 30.55 in1034.5 mb 0.00 in0.0 mm 0.00 in0.0 mm 0.00 in0.0 mm
10:54 AM 9.1°F-12.7°C 6.3°F-14.3°C 88% 2.7 mph NNE4.3 kmh NNE 5.1 mph8.2 kmh 30.55 in1034.5 mb 0.00 in0.0 mm 0.00 in0.0 mm 0.00 in0.0 mm
10:59 AM 9.3°F-12.6°C 6.4°F-14.2°C 88% 2.7 mph NE4.3 kmh NE 4.9 mph7.9 kmh 30.55 in1034.5 mb 0.00 in0.0 mm 0.00 in0.0 mm 0.00 in0.0 mm
11:04 AM 9.3°F-12.6°C 6.4°F-14.2°C 88% 2.2 mph N3.5 kmh N 6.7 mph10.8 kmh 30.56 in1034.9 mb 0.00 in0.0 mm 0.00 in0.0 mm 0.00 in0.0 mm
11:09 AM 9.5°F-12.5°C 6.6°F-14.1°C 88% 3.1 mph N5.0 kmh N 4.3 mph6.9 kmh 30.56 in1034.9 mb 0.00 in0.0 mm 0.00 in0.0 mm 0.00 in0.0 mm
11:14 AM 9.9°F-12.3°C 7.0°F-13.9°C 88% 2.5 mph NE4.0 kmh NE 3.6 mph5.8 kmh 30.57 in1035.2 mb 0.00 in0.0 mm 0.00 in0.0 mm 0.00 in0.0 mm
11:19 AM 10.0°F-12.2°C 7.2°F-13.8°C 88% 2.9 mph NE4.7 kmh NE 4.3 mph6.9 kmh 30.57 in1035.2 mb 0.00 in0.0 mm 0.00 in0.0 mm 0.00 in0.0 mm
11:24 AM 10.0°F-12.2°C 7.2°F-13.8°C 88% 2.0 mph N3.2 kmh N 3.4 mph5.5 kmh 30.57 in1035.2 mb 0.00 in0.0 mm 0.00 in0.0 mm 0.00 in0.0 mm
11:29 AM 10.0°F-12.2°C 7.2°F-13.8°C 88% 3.8 mph NE6.1 kmh NE 8.1 mph13.0 kmh 30.58 in1035.6 mb 0.00 in0.0 mm 0.00 in0.0 mm 0.00 in0.0 mm
11:34 AM 10.0°F-12.2°C 7.2°F-13.8°C 88% 3.8 mph NNW6.1 kmh NNW 6.9 mph11.1 kmh 30.58 in1035.6 mb 0.00 in0.0 mm 0.00 in0.0 mm 0.00 in0.0 mm
11:39 AM 10.2°F-12.1°C 7.3°F-13.7°C 88% 2.5 mph N4.0 kmh N 3.4 mph5.5 kmh 30.58 in1035.6 mb 0.00 in0.0 mm 0.00 in0.0 mm 0.00 in0.0 mm
11:44 AM 10.4°F-12.0°C 7.5°F-13.6°C 88% 1.3 mph N2.1 kmh N 2.5 mph4.0 kmh 30.58 in1035.6 mb 0.00 in0.0 mm 0.00 in0.0 mm 0.00 in0.0 mm
11:49 AM 10.4°F-12.0°C 7.5°F-13.6°C 88% 1.8 mph N2.9 kmh N 2.9 mph4.7 kmh 30.58 in1035.6 mb 0.00 in0.0 mm 0.00 in0.0 mm 0.00 in0.0 mm
11:54 AM 10.4°F-12.0°C 7.5°F-13.6°C 88% 2.7 mph NE4.3 kmh NE 7.2 mph11.6 kmh 30.59 in1035.9 mb 0.00 in0.0 mm 0.00 in0.0 mm 0.00 in0.0 mm
11:59 AM 10.6°F-11.9°C 7.7°F-13.5°C 88% 2.0 mph NE3.2 kmh NE 2.7 mph4.3 kmh 30.59 in1035.9 mb 0.00 in0.0 mm 0.00 in0.0 mm 0.00 in0.0 mm
12:04 PM 10.4°F-12.0°C 7.5°F-13.6°C 88% 2.2 mph NE3.5 kmh NE 4.3 mph6.9 kmh 30.59 in1035.9 mb 0.00 in0.0 mm 0.00 in0.0 mm 0.00 in0.0 mm
12:09 PM 10.4°F-12.0°C 7.5°F-13.6°C 88% 1.8 mph NNE2.9 kmh NNE 2.9 mph4.7 kmh 30.59 in1035.9 mb 0.00 in0.0 mm 0.00 in0.0 mm 0.00 in0.0 mm
12:14 PM 10.4°F-12.0°C 7.5°F-13.6°C 88% 2.2 mph N3.5 kmh N 3.4 mph5.5 kmh 30.59 in1035.9 mb 0.00 in0.0 mm 0.00 in0.0 mm 0.00 in0.0 mm
12:19 PM 10.4°F-12.0°C 7.5°F-13.6°C 88% 1.8 mph NE2.9 kmh NE 2.7 mph4.3 kmh 30.60 in1036.2 mb 0.00 in0.0 mm 0.00 in0.0 mm 0.00 in0.0 mm
12:24 PM 10.6°F-11.9°C 7.7°F-13.5°C 88% 2.5 mph NNE4.0 kmh NNE 5.4 mph8.7 kmh 30.60 in1036.2 mb 0.00 in0.0 mm 0.00 in0.0 mm 0.00 in0.0 mm
12:29 PM 10.8°F-11.8°C 8.2°F-13.2°C 89% 3.4 mph NNE5.5 kmh NNE 4.5 mph7.2 kmh 30.60 in1036.2 mb 0.00 in0.0 mm 0.00 in0.0 mm 0.00 in0.0 mm
12:34 PM 10.9°F-11.7°C 8.4°F-13.1°C 89% 1.6 mph N2.6 kmh N 3.1 mph5.0 kmh 30.60 in1036.2 mb 0.00 in0.0 mm 0.00 in0.0 mm 0.00 in0.0 mm
12:39 PM 10.8°F-11.8°C 7.9°F-13.4°C 88% 3.1 mph NE5.0 kmh NE 5.8 mph9.3 kmh 30.60 in1036.2 mb 0.00 in0.0 mm 0.00 in0.0 mm 0.00 in0.0 mm
12:44 PM 10.8°F-11.8°C 7.9°F-13.4°C 88% 1.8 mph N2.9 kmh N 2.5 mph4.0 kmh 30.60 in1036.2 mb 0.00 in0.0 mm 0.00 in0.0 mm 0.00 in0.0 mm
12:49 PM 10.9°F-11.7°C 8.1°F-13.3°C 88% 1.8 mph N2.9 kmh N 3.8 mph6.1 kmh 30.60 in1036.2 mb 0.00 in0.0 mm 0.00 in0.0 mm 0.00 in0.0 mm
12:54 PM 11.3°F-11.5°C 8.8°F-12.9°C 89% 4.0 mph NNE6.4 kmh NNE 9.2 mph14.8 kmh 30.60 in1036.2 mb 0.00 in0.0 mm 0.00 in0.0 mm 0.00 in0.0 mm
12:59 PM 11.3°F-11.5°C 8.8°F-12.9°C 89% 2.2 mph NNE3.5 kmh NNE 3.6 mph5.8 kmh 30.60 in1036.2 mb 0.00 in0.0 mm 0.00 in0.0 mm 0.00 in0.0 mm
01:04 PM 11.7°F-11.3°C 9.0°F-12.8°C 89% 2.7 mph N4.3 kmh N 4.5 mph7.2 kmh 30.59 in1035.9 mb 0.00 in0.0 mm 0.00 in0.0 mm 0.00 in0.0 mm
01:09 PM 11.7°F-11.3°C 9.0°F-12.8°C 89% 2.0 mph NNE3.2 kmh NNE 3.8 mph6.1 kmh 30.59 in1035.9 mb 0.00 in0.0 mm 0.00 in0.0 mm 0.00 in0.0 mm
01:14 PM 11.7°F-11.3°C 9.0°F-12.8°C 89% 2.7 mph N4.3 kmh N 4.0 mph6.4 kmh 30.59 in1035.9 mb 0.00 in0.0 mm 0.00 in0.0 mm 0.00 in0.0 mm
01:19 PM 11.3°F-11.5°C 8.4°F-13.1°C 88% 1.8 mph NE2.9 kmh NE 2.9 mph4.7 kmh 30.59 in1035.9 mb 0.00 in0.0 mm 0.00 in0.0 mm 0.00 in0.0 mm
01:24 PM 11.5°F-11.4°C 8.8°F-12.9°C 89% 2.0 mph N3.2 kmh N 3.4 mph5.5 kmh 30.59 in1035.9 mb 0.00 in0.0 mm 0.00 in0.0 mm 0.00 in0.0 mm
01:29 PM 11.7°F-11.3°C 9.0°F-12.8°C 89% 1.6 mph NNE2.6 kmh NNE 2.7 mph4.3 kmh 30.59 in1035.9 mb 0.00 in0.0 mm 0.00 in0.0 mm 0.00 in0.0 mm
01:34 PM 12.0°F-11.1°C 9.3°F-12.6°C 89% 2.2 mph NE3.5 kmh NE 3.6 mph5.8 kmh 30.59 in1035.9 mb 0.00 in0.0 mm 0.00 in0.0 mm 0.00 in0.0 mm
01:39 PM 12.0°F-11.1°C 9.3°F-12.6°C 89% 2.0 mph N3.2 kmh N 2.9 mph4.7 kmh 30.59 in1035.9 mb 0.00 in0.0 mm 0.00 in0.0 mm 0.00 in0.0 mm
01:44 PM 12.2°F-11.0°C 9.5°F-12.5°C 89% 2.5 mph NNE4.0 kmh NNE 4.0 mph6.4 kmh 30.59 in1035.9 mb 0.00 in0.0 mm 0.00 in0.0 mm 0.00 in0.0 mm
01:49 PM 12.0°F-11.1°C 9.3°F-12.6°C 89% 1.6 mph N2.6 kmh N 2.2 mph3.5 kmh 30.59 in1035.9 mb 0.00 in0.0 mm 0.00 in0.0 mm 0.00 in0.0 mm
01:54 PM 12.4°F-10.9°C 9.7°F-12.4°C 89% 1.6 mph NNE2.6 kmh NNE 3.1 mph5.0 kmh 30.59 in1035.9 mb 0.00 in0.0 mm 0.00 in0.0 mm 0.00 in0.0 mm
01:59 PM 12.4°F-10.9°C 9.7°F-12.4°C 89% 1.6 mph N2.6 kmh N 2.7 mph4.3 kmh 30.59 in1035.9 mb 0.00 in0.0 mm 0.00 in0.0 mm 0.00 in0.0 mm
02:04 PM 12.6°F-10.8°C 9.9°F-12.3°C 89% 2.5 mph N4.0 kmh N 4.7 mph7.6 kmh 30.59 in1035.9 mb 0.00 in0.0 mm 0.00 in0.0 mm 0.00 in0.0 mm
02:09 PM 12.6°F-10.8°C 9.9°F-12.3°C 89% 1.8 mph NNE2.9 kmh NNE 3.1 mph5.0 kmh 30.59 in1035.9 mb 0.00 in0.0 mm 0.00 in0.0 mm 0.00 in0.0 mm
02:14 PM 12.6°F-10.8°C 9.9°F-12.3°C 89% 2.0 mph NE3.2 kmh NE 3.4 mph5.5 kmh 30.59 in1035.9 mb 0.00 in0.0 mm 0.00 in0.0 mm 0.00 in0.0 mm
02:19 PM 12.6°F-10.8°C 9.9°F-12.3°C 89% 1.8 mph N2.9 kmh N 3.6 mph5.8 kmh 30.59 in1035.9 mb 0.00 in0.0 mm 0.00 in0.0 mm 0.00 in0.0 mm
02:24 PM 12.6°F-10.8°C 9.9°F-12.3°C 89% 2.0 mph NE3.2 kmh NE 2.9 mph4.7 kmh 30.58 in1035.6 mb 0.00 in0.0 mm 0.00 in0.0 mm 0.00 in0.0 mm
02:29 PM 12.9°F-10.6°C 10.2°F-12.1°C 89% 1.8 mph W2.9 kmh W 3.1 mph5.0 kmh 30.58 in1035.6 mb 0.00 in0.0 mm 0.00 in0.0 mm 0.00 in0.0 mm
02:34 PM 13.1°F-10.5°C 10.4°F-12.0°C 89% 2.5 mph NE4.0 kmh NE 4.3 mph6.9 kmh 30.59 in1035.9 mb 0.00 in0.0 mm 0.00 in0.0 mm 0.00 in0.0 mm
02:39 PM 13.1°F-10.5°C 10.4°F-12.0°C 89% 2.9 mph NE4.7 kmh NE 5.1 mph8.2 kmh 30.59 in1035.9 mb 0.00 in0.0 mm 0.00 in0.0 mm 0.00 in0.0 mm
02:44 PM 13.3°F-10.4°C 10.6°F-11.9°C 89% 2.0 mph NE3.2 kmh NE 3.4 mph5.5 kmh 30.59 in1035.9 mb 0.00 in0.0 mm 0.00 in0.0 mm 0.00 in0.0 mm
02:49 PM 13.3°F-10.4°C 10.6°F-11.9°C 89% 2.9 mph NNE4.7 kmh NNE 4.5 mph7.2 kmh 30.59 in1035.9 mb 0.00 in0.0 mm 0.00 in0.0 mm 0.00 in0.0 mm
02:54 PM 13.6°F-10.2°C 10.9°F-11.7°C 89% 1.8 mph NE2.9 kmh NE 3.1 mph5.0 kmh 30.59 in1035.9 mb 0.00 in0.0 mm 0.00 in0.0 mm 0.00 in0.0 mm
02:59 PM 13.5°F-10.3°C 10.8°F-11.8°C 89% 0.7 mph N1.1 kmh N 1.8 mph2.9 kmh 30.59 in1035.9 mb 0.00 in0.0 mm 0.00 in0.0 mm 0.00 in0.0 mm
03:04 PM 13.5°F-10.3°C 10.8°F-11.8°C 89% 2.7 mph NNE4.3 kmh NNE 4.7 mph7.6 kmh 30.59 in1035.9 mb 0.00 in0.0 mm 0.00 in0.0 mm 0.00 in0.0 mm
03:09 PM 13.3°F-10.4°C 10.4°F-12.0°C 88% 2.7 mph N4.3 kmh N 4.0 mph6.4 kmh 30.59 in1035.9 mb 0.00 in0.0 mm 0.00 in0.0 mm 0.00 in0.0 mm
03:14 PM 13.1°F-10.5°C 10.2°F-12.1°C 88% 2.0 mph NE3.2 kmh NE 3.4 mph5.5 kmh 30.59 in1035.9 mb 0.00 in0.0 mm 0.00 in0.0 mm 0.00 in0.0 mm
03:19 PM 13.3°F-10.4°C 10.4°F-12.0°C 88% 2.7 mph NE4.3 kmh NE 3.8 mph6.1 kmh 30.59 in1035.9 mb 0.00 in0.0 mm 0.00 in0.0 mm 0.00 in0.0 mm
03:24 PM 13.5°F-10.3°C 10.6°F-11.9°C 88% 2.0 mph 3.2 kmh 7.4 mph11.9 kmh 30.59 in1035.9 mb 0.00 in0.0 mm 0.00 in0.0 mm 0.00 in0.0 mm
03:29 PM 13.5°F-10.3°C 10.6°F-11.9°C 88% 1.6 mph NE2.6 kmh NE 3.4 mph5.5 kmh 30.59 in1035.9 mb 0.00 in0.0 mm 0.00 in0.0 mm 0.00 in0.0 mm
03:34 PM 13.5°F-10.3°C 10.6°F-11.9°C 88% 2.7 mph NE4.3 kmh NE 4.3 mph6.9 kmh 30.59 in1035.9 mb 0.00 in0.0 mm 0.00 in0.0 mm 0.00 in0.0 mm
03:39 PM 13.6°F-10.2°C 10.8°F-11.8°C 88% 2.9 mph ENE4.7 kmh ENE 4.3 mph6.9 kmh 30.59 in1035.9 mb 0.00 in0.0 mm 0.00 in0.0 mm 0.00 in0.0 mm
03:44 PM 13.6°F-10.2°C 10.8°F-11.8°C 88% 1.6 mph NE2.6 kmh NE 2.5 mph4.0 kmh 30.60 in1036.2 mb 0.00 in0.0 mm 0.00 in0.0 mm 0.00 in0.0 mm
03:49 PM 13.6°F-10.2°C 10.8°F-11.8°C 88% 2.0 mph NNE3.2 kmh NNE 3.1 mph5.0 kmh 30.60 in1036.2 mb 0.00 in0.0 mm 0.00 in0.0 mm 0.00 in0.0 mm
03:54 PM 13.8°F-10.1°C 10.9°F-11.7°C 88% 1.6 mph N2.6 kmh N 5.6 mph9.0 kmh 30.60 in1036.2 mb 0.00 in0.0 mm 0.00 in0.0 mm 0.00 in0.0 mm
03:59 PM 13.8°F-10.1°C 10.9°F-11.7°C 88% 1.8 mph E2.9 kmh E 2.2 mph3.5 kmh 30.60 in1036.2 mb 0.00 in0.0 mm 0.00 in0.0 mm 0.00 in0.0 mm
04:04 PM 13.6°F-10.2°C 10.2°F-12.1°C 86% 2.5 mph ENE4.0 kmh ENE 3.4 mph5.5 kmh 30.61 in1036.6 mb 0.00 in0.0 mm 0.00 in0.0 mm 0.00 in0.0 mm
04:09 PM 13.8°F-10.1°C 10.4°F-12.0°C 86% 1.8 mph N2.9 kmh N 3.4 mph5.5 kmh 30.61 in1036.6 mb 0.00 in0.0 mm 0.00 in0.0 mm 0.00 in0.0 mm
04:14 PM 13.6°F-10.2°C 10.2°F-12.1°C 86% 1.1 mph NNE1.8 kmh NNE 2.7 mph4.3 kmh 30.61 in1036.6 mb 0.00 in0.0 mm 0.00 in0.0 mm 0.00 in0.0 mm
04:19 PM 13.6°F-10.2°C 10.0°F-12.2°C 85% 1.6 mph N2.6 kmh N 2.5 mph4.0 kmh 30.61 in1036.6 mb 0.00 in0.0 mm 0.00 in0.0 mm 0.00 in0.0 mm
04:24 PM 13.6°F-10.2°C 9.7°F-12.4°C 84% 2.2 mph NNE3.5 kmh NNE 3.4 mph5.5 kmh 30.61 in1036.6 mb 0.00 in0.0 mm 0.00 in0.0 mm 0.00 in0.0 mm
04:29 PM 13.6°F-10.2°C 9.5°F-12.5°C 83% 1.3 mph NNE2.1 kmh NNE 3.1 mph5.0 kmh 30.61 in1036.6 mb 0.00 in0.0 mm 0.00 in0.0 mm 0.00 in0.0 mm
04:34 PM 13.8°F-10.1°C 9.1°F-12.7°C 81% 1.3 mph N2.1 kmh N 2.7 mph4.3 kmh 30.61 in1036.6 mb 0.00 in0.0 mm 0.00 in0.0 mm 0.00 in0.0 mm
04:39 PM 13.6°F-10.2°C 8.6°F-13.0°C 80% 1.6 mph NNE2.6 kmh NNE 2.7 mph4.3 kmh 30.61 in1036.6 mb 0.00 in0.0 mm 0.00 in0.0 mm 0.00 in0.0 mm
04:44 PM 13.6°F-10.2°C 8.4°F-13.1°C 79% 1.6 mph NE2.6 kmh NE 2.9 mph4.7 kmh 30.61 in1036.6 mb 0.00 in0.0 mm 0.00 in0.0 mm 0.00 in0.0 mm
04:49 PM 13.6°F-10.2°C 8.1°F-13.3°C 78% 1.8 mph NNE2.9 kmh NNE 2.7 mph4.3 kmh 30.61 in1036.6 mb 0.00 in0.0 mm 0.00 in0.0 mm 0.00 in0.0 mm
04:54 PM 13.5°F-10.3°C 7.0°F-13.9°C 75% 3.1 mph N5.0 kmh N 6.3 mph10.1 kmh 30.61 in1036.6 mb 0.00 in0.0 mm 0.00 in0.0 mm 0.00 in0.0 mm
04:59 PM 13.6°F-10.2°C 7.5°F-13.6°C 76% 0.7 mph N1.1 kmh N 1.6 mph2.6 kmh 30.61 in1036.6 mb 0.00 in0.0 mm 0.00 in0.0 mm 0.00 in0.0 mm
05:04 PM 13.6°F-10.2°C 7.2°F-13.8°C 75% 1.6 mph WNW2.6 kmh WNW 2.7 mph4.3 kmh 30.62 in1036.9 mb 0.00 in0.0 mm 0.00 in0.0 mm 0.00 in0.0 mm
05:09 PM 13.8°F-10.1°C 7.3°F-13.7°C 75% 1.3 mph NE2.1 kmh NE 2.7 mph4.3 kmh 30.62 in1036.9 mb 0.00 in0.0 mm 0.00 in0.0 mm 0.00 in0.0 mm
05:14 PM 14.0°F-10.0°C 7.5°F-13.6°C 75% 2.0 mph NE3.2 kmh NE 3.6 mph5.8 kmh 30.61 in1036.6 mb 0.00 in0.0 mm 0.00 in0.0 mm 0.00 in0.0 mm
05:19 PM 14.2°F-9.9°C 7.7°F-13.5°C 75% 2.2 mph NE3.5 kmh NE 3.1 mph5.0 kmh 30.61 in1036.6 mb 0.00 in0.0 mm 0.00 in0.0 mm 0.00 in0.0 mm
05:24 PM 14.2°F-9.9°C 7.3°F-13.7°C 74% 1.6 mph NNE2.6 kmh NNE 2.7 mph4.3 kmh 30.61 in1036.6 mb 0.00 in0.0 mm 0.00 in0.0 mm 0.00 in0.0 mm
05:29 PM 14.0°F-10.0°C 7.2°F-13.8°C 74% 1.8 mph NE2.9 kmh NE 4.7 mph7.6 kmh 30.61 in1036.6 mb 0.00 in0.0 mm 0.00 in0.0 mm 0.00 in0.0 mm
05:34 PM 13.8°F-10.1°C 6.8°F-14.0°C 73% 2.0 mph NE3.2 kmh NE 2.7 mph4.3 kmh 30.61 in1036.6 mb 0.00 in0.0 mm 0.00 in0.0 mm 0.00 in0.0 mm
05:39 PM 13.8°F-10.1°C 7.0°F-13.9°C 74% 1.6 mph ENE2.6 kmh ENE 2.5 mph4.0 kmh 30.61 in1036.6 mb 0.00 in0.0 mm 0.00 in0.0 mm 0.00 in0.0 mm
05:44 PM 14.0°F-10.0°C 7.5°F-13.6°C 75% 3.1 mph ENE5.0 kmh ENE 3.8 mph6.1 kmh 30.61 in1036.6 mb 0.00 in0.0 mm 0.00 in0.0 mm 0.00 in0.0 mm
05:49 PM 14.2°F-9.9°C 7.7°F-13.5°C 75% 1.1 mph NNE1.8 kmh NNE 2.0 mph3.2 kmh 30.60 in1036.2 mb 0.00 in0.0 mm 0.00 in0.0 mm 0.00 in0.0 mm
05:54 PM 13.8°F-10.1°C 7.3°F-13.7°C 75% 1.3 mph NNE2.1 kmh NNE 2.2 mph3.5 kmh 30.61 in1036.6 mb 0.00 in0.0 mm 0.00 in0.0 mm 0.00 in0.0 mm
05:59 PM 13.6°F-10.2°C 7.0°F-13.9°C 74% 0.9 mph E1.4 kmh E 2.2 mph3.5 kmh 30.61 in1036.6 mb 0.00 in0.0 mm 0.00 in0.0 mm 0.00 in0.0 mm
06:04 PM 13.8°F-10.1°C 7.3°F-13.7°C 75% 1.3 mph NE2.1 kmh NE 2.2 mph3.5 kmh 30.61 in1036.6 mb 0.00 in0.0 mm 0.00 in0.0 mm 0.00 in0.0 mm
06:09 PM 13.6°F-10.2°C 7.2°F-13.8°C 75% 1.3 mph E2.1 kmh E 2.0 mph3.2 kmh 30.60 in1036.2 mb 0.00 in0.0 mm 0.00 in0.0 mm 0.00 in0.0 mm
06:14 PM 14.0°F-10.0°C 7.5°F-13.6°C 75% 1.1 mph NE1.8 kmh NE 1.8 mph2.9 kmh 30.61 in1036.6 mb 0.00 in0.0 mm 0.00 in0.0 mm 0.00 in0.0 mm
06:19 PM 14.2°F-9.9°C 7.7°F-13.5°C 75% 1.1 mph ENE1.8 kmh ENE 1.8 mph2.9 kmh 30.61 in1036.6 mb 0.00 in0.0 mm 0.00 in0.0 mm 0.00 in0.0 mm
06:24 PM 14.0°F-10.0°C 7.5°F-13.6°C 75% 1.3 mph E2.1 kmh E 1.8 mph2.9 kmh 30.61 in1036.6 mb 0.00 in0.0 mm 0.00 in0.0 mm 0.00 in0.0 mm
06:29 PM 13.8°F-10.1°C 7.3°F-13.7°C 75% 1.3 mph NE2.1 kmh NE 2.5 mph4.0 kmh 30.61 in1036.6 mb 0.00 in0.0 mm 0.00 in0.0 mm 0.00 in0.0 mm
06:34 PM 13.8°F-10.1°C 7.3°F-13.7°C 75% 1.1 mph NNW1.8 kmh NNW 2.0 mph3.2 kmh 30.61 in1036.6 mb 0.00 in0.0 mm 0.00 in0.0 mm 0.00 in0.0 mm
06:39 PM 13.8°F-10.1°C 7.7°F-13.5°C 76% 1.8 mph E2.9 kmh E 2.2 mph3.5 kmh 30.62 in1036.9 mb 0.00 in0.0 mm 0.00 in0.0 mm 0.00 in0.0 mm
06:44 PM 13.8°F-10.1°C 7.7°F-13.5°C 76% 1.1 mph E1.8 kmh E 1.8 mph2.9 kmh 30.62 in1036.9 mb 0.00 in0.0 mm 0.00 in0.0 mm 0.00 in0.0 mm
06:49 PM 13.6°F-10.2°C 7.2°F-13.8°C 75% 1.6 mph E2.6 kmh E 1.8 mph2.9 kmh 30.62 in1036.9 mb 0.00 in0.0 mm 0.00 in0.0 mm 0.00 in0.0 mm
06:54 PM 13.8°F-10.1°C 7.7°F-13.5°C 76% 1.8 mph SE2.9 kmh SE 1.8 mph2.9 kmh 30.63 in1037.3 mb 0.00 in0.0 mm 0.00 in0.0 mm 0.00 in0.0 mm
06:59 PM 14.0°F-10.0°C 7.9°F-13.4°C 76% 1.1 mph SE1.8 kmh SE 2.0 mph3.2 kmh 30.62 in1036.9 mb 0.00 in0.0 mm 0.00 in0.0 mm 0.00 in0.0 mm
07:04 PM 14.0°F-10.0°C 7.9°F-13.4°C 76% 1.8 mph E2.9 kmh E 2.2 mph3.5 kmh 30.62 in1036.9 mb 0.00 in0.0 mm 0.00 in0.0 mm 0.00 in0.0 mm
07:09 PM 14.0°F-10.0°C 7.9°F-13.4°C 76% 1.8 mph E2.9 kmh E 2.2 mph3.5 kmh 30.63 in1037.3 mb 0.00 in0.0 mm 0.00 in0.0 mm 0.00 in0.0 mm
07:14 PM 14.0°F-10.0°C 7.9°F-13.4°C 76% 1.1 mph N1.8 kmh N 2.2 mph3.5 kmh 30.63 in1037.3 mb 0.00 in0.0 mm 0.00 in0.0 mm 0.00 in0.0 mm
07:19 PM 14.0°F-10.0°C 7.9°F-13.4°C 76% 1.6 mph SE2.6 kmh SE 2.2 mph3.5 kmh 30.63 in1037.3 mb 0.00 in0.0 mm 0.00 in0.0 mm 0.00 in0.0 mm
07:24 PM 14.0°F-10.0°C 7.9°F-13.4°C 76% 0.7 mph NW1.1 kmh NW 1.8 mph2.9 kmh 30.64 in1037.6 mb 0.00 in0.0 mm 0.00 in0.0 mm 0.00 in0.0 mm
07:29 PM 14.0°F-10.0°C 7.9°F-13.4°C 76% 1.3 mph SE2.1 kmh SE 2.0 mph3.2 kmh 30.65 in1037.9 mb 0.00 in0.0 mm 0.00 in0.0 mm 0.00 in0.0 mm
07:34 PM 14.2°F-9.9°C 8.1°F-13.3°C 76% 1.3 mph SSE2.1 kmh SSE 2.0 mph3.2 kmh 30.65 in1037.9 mb 0.00 in0.0 mm 0.00 in0.0 mm 0.00 in0.0 mm
07:39 PM 14.2°F-9.9°C 8.6°F-13.0°C 78% 1.6 mph S2.6 kmh S 2.5 mph4.0 kmh 30.65 in1037.9 mb 0.00 in0.0 mm 0.00 in0.0 mm 0.00 in0.0 mm
07:44 PM 14.2°F-9.9°C 8.6°F-13.0°C 78% 1.8 mph E2.9 kmh E 2.0 mph3.2 kmh 30.65 in1037.9 mb 0.00 in0.0 mm 0.00 in0.0 mm 0.00 in0.0 mm
07:49 PM 14.0°F-10.0°C 8.4°F-13.1°C 78% 2.0 mph S3.2 kmh S 3.1 mph5.0 kmh 30.65 in1037.9 mb 0.00 in0.0 mm 0.00 in0.0 mm 0.00 in0.0 mm
07:54 PM 14.0°F-10.0°C 8.6°F-13.0°C 79% 1.8 mph SSE2.9 kmh SSE 2.5 mph4.0 kmh 30.65 in1037.9 mb 0.00 in0.0 mm 0.00 in0.0 mm 0.00 in0.0 mm
07:59 PM 14.2°F-9.9°C 9.1°F-12.7°C 80% 0.9 mph SE1.4 kmh SE 2.0 mph3.2 kmh 30.65 in1037.9 mb 0.00 in0.0 mm 0.00 in0.0 mm 0.00 in0.0 mm
08:04 PM 13.8°F-10.1°C 8.6°F-13.0°C 79% 1.6 mph S2.6 kmh S 2.2 mph3.5 kmh 30.66 in1038.3 mb 0.00 in0.0 mm 0.00 in0.0 mm 0.00 in0.0 mm
08:09 PM 13.8°F-10.1°C 8.8°F-12.9°C 80% 1.3 mph SSE2.1 kmh SSE 2.7 mph4.3 kmh 30.66 in1038.3 mb 0.00 in0.0 mm 0.00 in0.0 mm 0.00 in0.0 mm
08:14 PM 13.8°F-10.1°C 8.8°F-12.9°C 80% 1.1 mph E1.8 kmh E 2.5 mph4.0 kmh 30.66 in1038.3 mb 0.00 in0.0 mm 0.00 in0.0 mm 0.00 in0.0 mm
08:19 PM 13.8°F-10.1°C 8.8°F-12.9°C 80% 1.8 mph SE2.9 kmh SE 2.7 mph4.3 kmh 30.66 in1038.3 mb 0.00 in0.0 mm 0.00 in0.0 mm 0.00 in0.0 mm
08:24 PM 13.6°F-10.2°C 8.6°F-13.0°C 80% 1.3 mph SSE2.1 kmh SSE 2.5 mph4.0 kmh 30.66 in1038.3 mb 0.00 in0.0 mm 0.00 in0.0 mm 0.00 in0.0 mm
08:29 PM 13.5°F-10.3°C 8.4°F-13.1°C 80% 4.7 mph SW7.6 kmh SW 6.9 mph11.1 kmh 30.66 in1038.3 mb 0.00 in0.0 mm 0.00 in0.0 mm 0.00 in0.0 mm
08:34 PM 13.3°F-10.4°C 8.1°F-13.3°C 79% 1.3 mph S2.1 kmh S 2.2 mph3.5 kmh 30.66 in1038.3 mb 0.00 in0.0 mm 0.00 in0.0 mm 0.00 in0.0 mm
08:39 PM 13.3°F-10.4°C 8.1°F-13.3°C 79% 2.7 mph S4.3 kmh S 4.9 mph7.9 kmh 30.65 in1037.9 mb 0.00 in0.0 mm 0.00 in0.0 mm 0.00 in0.0 mm
08:44 PM 13.1°F-10.5°C 7.9°F-13.4°C 79% 3.1 mph SSW5.0 kmh SSW 5.6 mph9.0 kmh 30.66 in1038.3 mb 0.00 in0.0 mm 0.00 in0.0 mm 0.00 in0.0 mm
08:49 PM 12.9°F-10.6°C 7.7°F-13.5°C 79% 1.6 mph SSE2.6 kmh SSE 3.4 mph5.5 kmh 30.66 in1038.3 mb 0.00 in0.0 mm 0.00 in0.0 mm 0.00 in0.0 mm
08:54 PM 12.7°F-10.7°C 7.5°F-13.6°C 79% 2.2 mph ESE3.5 kmh ESE 4.7 mph7.6 kmh 30.66 in1038.3 mb 0.00 in0.0 mm 0.00 in0.0 mm 0.00 in0.0 mm
08:59 PM 12.6°F-10.8°C 7.3°F-13.7°C 79% 1.8 mph ESE2.9 kmh ESE 2.9 mph4.7 kmh 30.66 in1038.3 mb 0.00 in0.0 mm 0.00 in0.0 mm 0.00 in0.0 mm
09:04 PM 12.7°F-10.7°C 7.5°F-13.6°C 79% 1.1 mph SSW1.8 kmh SSW 2.7 mph4.3 kmh 30.65 in1037.9 mb 0.00 in0.0 mm 0.00 in0.0 mm 0.00 in0.0 mm
09:09 PM 12.9°F-10.6°C 7.7°F-13.5°C 79% 2.0 mph SE3.2 kmh SE 2.7 mph4.3 kmh 30.65 in1037.9 mb 0.00 in0.0 mm 0.00 in0.0 mm 0.00 in0.0 mm
09:14 PM 12.9°F-10.6°C 7.7°F-13.5°C 79% 1.3 mph S2.1 kmh S 2.0 mph3.2 kmh 30.65 in1037.9 mb 0.00 in0.0 mm 0.00 in0.0 mm 0.00 in0.0 mm
09:19 PM 12.9°F-10.6°C 7.7°F-13.5°C 79% 2.2 mph S3.5 kmh S 3.6 mph5.8 kmh 30.65 in1037.9 mb 0.00 in0.0 mm 0.00 in0.0 mm 0.00 in0.0 mm
09:24 PM 12.9°F-10.6°C 7.9°F-13.4°C 80% 1.1 mph S1.8 kmh S 2.7 mph4.3 kmh 30.66 in1038.3 mb 0.00 in0.0 mm 0.00 in0.0 mm 0.00 in0.0 mm
09:29 PM 12.6°F-10.8°C 7.3°F-13.7°C 79% 2.5 mph S4.0 kmh S 4.7 mph7.6 kmh 30.65 in1037.9 mb 0.00 in0.0 mm 0.00 in0.0 mm 0.00 in0.0 mm
09:34 PM 12.6°F-10.8°C 7.3°F-13.7°C 79% 1.6 mph NNE2.6 kmh NNE 2.7 mph4.3 kmh 30.65 in1037.9 mb 0.00 in0.0 mm 0.00 in0.0 mm 0.00 in0.0 mm
09:39 PM 12.4°F-10.9°C 7.2°F-13.8°C 79% 1.1 mph SSE1.8 kmh SSE 1.3 mph2.1 kmh 30.65 in1037.9 mb 0.00 in0.0 mm 0.00 in0.0 mm 0.00 in0.0 mm
09:44 PM 12.6°F-10.8°C 7.3°F-13.7°C 79% 1.8 mph NNE2.9 kmh NNE 2.0 mph3.2 kmh 30.65 in1037.9 mb 0.00 in0.0 mm 0.00 in0.0 mm 0.00 in0.0 mm
09:49 PM 12.2°F-11.0°C 7.0°F-13.9°C 79% 1.6 mph SSE2.6 kmh SSE 2.0 mph3.2 kmh 30.64 in1037.6 mb 0.00 in0.0 mm 0.00 in0.0 mm 0.00 in0.0 mm
09:54 PM 12.6°F-10.8°C 7.5°F-13.6°C 80% 1.8 mph SE2.9 kmh SE 3.4 mph5.5 kmh 30.65 in1037.9 mb 0.00 in0.0 mm 0.00 in0.0 mm 0.00 in0.0 mm
09:59 PM 12.4°F-10.9°C 7.3°F-13.7°C 80% 1.1 mph SSE1.8 kmh SSE 3.1 mph5.0 kmh 30.65 in1037.9 mb 0.00 in0.0 mm 0.00 in0.0 mm 0.00 in0.0 mm
10:04 PM 12.7°F-10.7°C 7.7°F-13.5°C 80% 0.7 mph SE1.1 kmh SE 2.2 mph3.5 kmh 30.65 in1037.9 mb 0.00 in0.0 mm 0.00 in0.0 mm 0.00 in0.0 mm
10:09 PM 12.9°F-10.6°C 7.9°F-13.4°C 80% 0.7 mph SSE1.1 kmh SSE 1.1 mph1.8 kmh 30.65 in1037.9 mb 0.00 in0.0 mm 0.00 in0.0 mm 0.00 in0.0 mm
10:14 PM 12.7°F-10.7°C 7.7°F-13.5°C 80% 0.9 mph SE1.4 kmh SE 2.7 mph4.3 kmh 30.65 in1037.9 mb 0.00 in0.0 mm 0.00 in0.0 mm 0.00 in0.0 mm
10:19 PM 12.2°F-11.0°C 7.0°F-13.9°C 79% 2.9 mph SE4.7 kmh SE 3.4 mph5.5 kmh 30.65 in1037.9 mb 0.00 in0.0 mm 0.00 in0.0 mm 0.00 in0.0 mm
10:24 PM 12.7°F-10.7°C 8.1°F-13.3°C 81% 1.8 mph SE2.9 kmh SE 2.9 mph4.7 kmh 30.65 in1037.9 mb 0.00 in0.0 mm 0.00 in0.0 mm 0.00 in0.0 mm
10:29 PM 12.9°F-10.6°C 8.2°F-13.2°C 81% 1.8 mph SE2.9 kmh SE 2.7 mph4.3 kmh 30.65 in1037.9 mb 0.00 in0.0 mm 0.00 in0.0 mm 0.00 in0.0 mm
10:34 PM 12.4°F-10.9°C 7.3°F-13.7°C 80% 2.2 mph SE3.5 kmh SE 3.4 mph5.5 kmh 30.65 in1037.9 mb 0.00 in0.0 mm 0.00 in0.0 mm 0.00 in0.0 mm
10:39 PM 12.2°F-11.0°C 7.2°F-13.8°C 80% 2.5 mph SE4.0 kmh SE 2.7 mph4.3 kmh 30.65 in1037.9 mb 0.00 in0.0 mm 0.00 in0.0 mm 0.00 in0.0 mm
10:44 PM 12.4°F-10.9°C 7.7°F-13.5°C 81% 1.3 mph S2.1 kmh S 1.8 mph2.9 kmh 30.65 in1037.9 mb 0.00 in0.0 mm 0.00 in0.0 mm 0.00 in0.0 mm
10:49 PM 12.6°F-10.8°C 7.5°F-13.6°C 80% 2.5 mph ESE4.0 kmh ESE 2.7 mph4.3 kmh 30.64 in1037.6 mb 0.00 in0.0 mm 0.00 in0.0 mm 0.00 in0.0 mm
10:54 PM 12.7°F-10.7°C 7.7°F-13.5°C 80% 1.8 mph SSE2.9 kmh SSE 3.4 mph5.5 kmh 30.64 in1037.6 mb 0.00 in0.0 mm 0.00 in0.0 mm 0.00 in0.0 mm
10:59 PM 12.2°F-11.0°C 7.2°F-13.8°C 80% 0.7 mph SE1.1 kmh SE 2.5 mph4.0 kmh 30.64 in1037.6 mb 0.00 in0.0 mm 0.00 in0.0 mm 0.00 in0.0 mm
11:04 PM 11.8°F-11.2°C 6.6°F-14.1°C 79% 1.6 mph SE2.6 kmh SE 3.4 mph5.5 kmh 30.64 in1037.6 mb 0.00 in0.0 mm 0.00 in0.0 mm 0.00 in0.0 mm
11:09 PM 12.0°F-11.1°C 7.0°F-13.9°C 80% 1.3 mph SSE2.1 kmh SSE 2.5 mph4.0 kmh 30.65 in1037.9 mb 0.00 in0.0 mm 0.00 in0.0 mm 0.00 in0.0 mm
11:14 PM 11.7°F-11.3°C 6.4°F-14.2°C 79% 2.5 mph ESE4.0 kmh ESE 3.1 mph5.0 kmh 30.65 in1037.9 mb 0.00 in0.0 mm 0.00 in0.0 mm 0.00 in0.0 mm
11:19 PM 11.5°F-11.4°C 6.3°F-14.3°C 79% 1.3 mph SE2.1 kmh SE 2.9 mph4.7 kmh 30.65 in1037.9 mb 0.00 in0.0 mm 0.00 in0.0 mm 0.00 in0.0 mm
11:24 PM 11.3°F-11.5°C 6.3°F-14.3°C 80% 3.1 mph ESE5.0 kmh ESE 3.6 mph5.8 kmh 30.64 in1037.6 mb 0.00 in0.0 mm 0.00 in0.0 mm 0.00 in0.0 mm
11:29 PM 11.5°F-11.4°C 6.4°F-14.2°C 80% 1.3 mph S2.1 kmh S 2.5 mph4.0 kmh 30.65 in1037.9 mb 0.00 in0.0 mm 0.00 in0.0 mm 0.00 in0.0 mm
11:34 PM 11.1°F-11.6°C 5.9°F-14.5°C 79% 2.2 mph SE3.5 kmh SE 3.1 mph5.0 kmh 30.65 in1037.9 mb 0.00 in0.0 mm 0.00 in0.0 mm 0.00 in0.0 mm
11:39 PM 10.9°F-11.7°C 5.7°F-14.6°C 79% 2.0 mph SE3.2 kmh SE 2.9 mph4.7 kmh 30.65 in1037.9 mb 0.00 in0.0 mm 0.00 in0.0 mm 0.00 in0.0 mm
11:44 PM 10.9°F-11.7°C 5.7°F-14.6°C 79% 1.8 mph SE2.9 kmh SE 3.4 mph5.5 kmh 30.65 in1037.9 mb 0.00 in0.0 mm 0.00 in0.0 mm 0.00 in0.0 mm
11:48 PM 11.3°F-11.5°C 6.1°F-14.4°C 79% 1.6 mph S2.6 kmh S 2.2 mph3.5 kmh 30.66 in1038.3 mb 0.00 in0.0 mm 0.00 in0.0 mm 0.00 in0.0 mm
11:54 PM 11.1°F-11.6°C 5.9°F-14.5°C 79% 2.9 mph E4.7 kmh E 3.4 mph5.5 kmh 30.66 in1038.3 mb 0.00 in0.0 mm 0.00 in0.0 mm 0.00 in0.0 mm
11:59 PM 11.3°F-11.5°C 6.3°F-14.3°C 80% 2.0 mph SE3.2 kmh SE 3.6 mph5.8 kmh 30.66 in1038.3 mb 0.00 in0.0 mm 0.00 in0.0 mm 0.00 in0.0 mm